Greenville, MO (63944)

7:30 AM CDT on July 28, 2014 (GMT -0500)
Poplar Bluff 7 NW (KMOPOPLA3) Elev 449 ft | 36.83 °N, 90.52 °W | Change Station

Current weather conditions updated 0 second ago

Clear
Clear
63.1 °F
Feels Like 63.1 °F
N
3.0
Wind Variable Wind from WNW
Gusts 4.0 mph

Today is forecast to be Much Cooler than yesterday.

Today
High -- | Low -- °F
--% Chance of Precip.
Yesterday
High -- | Low -- °F
Precip. -- in
6:03 AM 8:12 PM
New Moon, 2% visible
Pressure 30.05 in
Visibility 10.0 miles
Clouds Clear
Dew Point 58 °F
Humidity 85%
Rainfall 0.00 in
Snow Depth Not available.
UV 0 out of 12
Pollen 7.30 out of 12
Air Quality Not available.
Flu Activity Not available.
METAR KPOF 281153Z AUTO 29005KT 10SM CLR 19/14 A3006 RMK AO2 SLP174 T01890144 10233 20172 51018

More Conditions Fewer Conditions

Pressure 30.05 in
Visibility 10.0 miles
Clouds Clear
Dew Point 58 °F
Humidity 85%
Rainfall 0.00 in
Snow Depth Not available.
UV 0 out of 12
Pollen 7.30 out of 12
Air Quality Not available.
Flu Activity Not available.
METAR KPOF 281153Z AUTO 29005KT 10SM CLR 19/14 A3006 RMK AO2 SLP174 T01890144 10233 20172 51018

More Conditions Fewer Conditions

10-Day Weather Forecast

Almanac

Astronomy

Jul. 28, 2014 Rise Set
Actual Time 6:03 AM CDT 8:12 PM CDT
Civil Twilight 5:34 AM CDT 8:41 PM CDT
Nautical Twilight 4:58 AM CDT 9:17 PM CDT
Astronomical Twilight 4:20 AM CDT 9:55 PM CDT
Moon 7:41 AM CDT 8:58 PM CDT
Length of Visible Light 15h 07m
Length of Day
14h 09m
Tomorrow will be 1m 40s shorter.
New Moon, 2% of the Moon is Illuminated
Today
New Moon
Aug 3
First Quarter
Aug 10
Full
Aug 17
Last Quarter
Aug 25
New

Today's Extremes

State Highs State Lows

Community

WunderPhotos

Upload Photos

1,738,311 photos uploaded!

Nearby

Snow Depth

Station Depth Elevation
No new snow has been reported.

Earthquake Activity

City Distance Mag. Time & Date
No recent earthquake activity has been reported nearby.
Minimum magnitude displayed is 2.5.

Coastal Water Temperatures

Place Temperature
No Stations Reporting

Nearby Weather Stations

Station Location Temp. Dew Point Humidity Wind Precip. Elev Updated Type
MesoWest WILVIL , Mill Spring, MO 57 °F - - North  at  - 0.00 in / hr 414 ft 6:15 AM CDT MADIS
RAWS PIEDMONT MO, 59 °F 58 °F 96% NW  at  1 mph 0.00 in / hr 839 ft 7:30 AM EDT MADIS
Poplar Bluff 7 NW, Poplar Bluff, MO 63.1 °F 58 °F 85% WNW  at  3.0 mph 0.00 in / hr 449 ft 7:30 AM CDT Rapid Fire
Peaceful Acres, Poplar Bluff, MO 67.1 °F 63 °F 86% West  at  2.0 mph 0.00 in / hr 338 ft 7:30 AM CDT Rapid Fire
Inman Acres, Poplar Bluff, MO 67.8 °F 61 °F 80% NNW  at  2.9 mph 0.00 in / hr 341 ft 7:27 AM CDT Rapid Fire

Show More Stations Show Fewer Stations